createdAt,value
2019-03-31T00:00:43.022Z,0.00
2019-03-31T00:01:43.028Z,0.00
2019-03-31T00:02:43.009Z,0.00
2019-03-31T00:03:42.993Z,0.00
2019-03-31T00:04:42.975Z,0.00
2019-03-31T00:05:42.964Z,0.00
2019-03-31T00:06:42.989Z,0.00
2019-03-31T00:07:42.988Z,0.00
2019-03-31T00:08:42.944Z,0.00
2019-03-31T00:09:42.929Z,0.00
2019-03-31T00:10:42.917Z,0.00
2019-03-31T00:11:42.931Z,0.00
2019-03-31T00:12:42.902Z,0.00
2019-03-31T00:13:42.890Z,0.00
2019-03-31T00:14:42.874Z,0.00
2019-03-31T00:15:42.863Z,0.00
2019-03-31T00:16:42.875Z,0.00
2019-03-31T00:17:42.840Z,0.00
2019-03-31T00:18:42.831Z,0.00
2019-03-31T00:19:42.825Z,0.00
2019-03-31T00:20:42.819Z,0.00
2019-03-31T00:21:42.809Z,0.00
2019-03-31T00:22:42.790Z,0.00
2019-03-31T00:23:42.770Z,0.00
2019-03-31T00:24:42.761Z,0.00
2019-03-31T00:25:42.749Z,0.00
2019-03-31T00:26:42.758Z,0.00
2019-03-31T00:27:42.737Z,0.00
2019-03-31T00:28:42.739Z,0.00
2019-03-31T00:29:42.712Z,0.00
2019-03-31T00:30:42.701Z,0.00
2019-03-31T00:31:42.718Z,0.00
2019-03-31T00:32:42.678Z,0.00
2019-03-31T00:33:42.673Z,0.00
2019-03-31T00:34:42.656Z,0.00
2019-03-31T00:35:42.661Z,0.00
2019-03-31T00:36:42.652Z,0.00
2019-03-31T00:37:42.628Z,0.00
2019-03-31T00:38:42.616Z,0.00
2019-03-31T00:39:42.627Z,0.00
2019-03-31T00:40:42.594Z,0.00
2019-03-31T00:41:42.599Z,0.00
2019-03-31T00:42:42.573Z,0.00
2019-03-31T00:43:42.562Z,0.00
2019-03-31T00:44:42.545Z,0.00
2019-03-31T00:45:42.540Z,0.00
2019-03-31T00:46:42.540Z,0.00
2019-03-31T00:47:42.572Z,0.00
2019-03-31T00:48:42.494Z,0.00
2019-03-31T00:49:42.498Z,0.00
2019-03-31T00:50:42.488Z,0.00
2019-03-31T00:51:42.485Z,0.00
2019-03-31T00:52:42.462Z,0.00
2019-03-31T00:53:42.448Z,0.00
2019-03-31T00:54:42.512Z,0.00
2019-03-31T00:55:42.432Z,0.00
2019-03-31T00:56:42.432Z,0.00
2019-03-31T00:57:42.412Z,0.00
2019-03-31T00:58:42.391Z,0.00
2019-03-31T00:59:42.387Z,0.00
2019-03-31T01:00:42.382Z,0.00
2019-03-31T01:01:42.368Z,0.00
2019-03-31T01:02:42.371Z,0.00
2019-03-31T01:04:51.540Z,0.00
2019-03-31T01:05:52.523Z,0.00
2019-03-31T01:06:52.511Z,0.00
2019-03-31T01:07:52.520Z,0.00
2019-03-31T01:08:52.486Z,0.00
2019-03-31T01:09:52.480Z,0.00
2019-03-31T01:10:52.469Z,0.00
2019-03-31T01:11:52.454Z,0.00
2019-03-31T01:12:52.466Z,0.00
2019-03-31T01:13:52.435Z,0.00
2019-03-31T01:14:52.424Z,0.00
2019-03-31T01:15:52.405Z,0.00
2019-03-31T01:16:52.414Z,0.00
2019-03-31T01:17:52.409Z,0.00
2019-03-31T01:18:52.385Z,0.00
2019-03-31T01:19:52.378Z,0.00
2019-03-31T01:20:52.360Z,0.00
2019-03-31T01:21:52.346Z,0.00
2019-03-31T01:22:52.351Z,0.00
2019-03-31T01:23:52.322Z,0.00
2019-03-31T01:24:52.314Z,0.00
2019-03-31T01:25:52.298Z,0.00
2019-03-31T01:26:52.289Z,0.00
2019-03-31T01:27:52.292Z,0.00
2019-03-31T01:28:52.264Z,0.00
2019-03-31T01:29:52.264Z,0.00
2019-03-31T01:30:52.246Z,0.00
2019-03-31T01:31:52.244Z,0.00
2019-03-31T01:32:52.242Z,0.00
2019-03-31T01:33:52.225Z,0.00
2019-03-31T01:34:52.244Z,0.00
2019-03-31T01:35:52.200Z,0.00
2019-03-31T01:36:52.186Z,0.00
2019-03-31T01:37:52.197Z,0.00
2019-03-31T01:38:52.163Z,0.00
2019-03-31T01:39:52.150Z,0.00
2019-03-31T01:40:52.138Z,0.00
2019-03-31T01:41:52.136Z,0.00
2019-03-31T01:42:52.152Z,0.00
2019-03-31T01:43:52.106Z,0.00
2019-03-31T01:44:52.105Z,0.00
2019-03-31T01:45:52.099Z,0.00
2019-03-31T01:46:52.074Z,0.00
2019-03-31T01:47:52.089Z,0.00
2019-03-31T01:48:52.062Z,0.00
2019-03-31T01:49:52.049Z,0.00
2019-03-31T01:50:52.033Z,0.00
2019-03-31T01:51:52.034Z,0.00
2019-03-31T01:52:52.069Z,0.00
2019-03-31T01:53:52.009Z,0.00
2019-03-31T01:54:51.989Z,0.00
2019-03-31T01:55:51.980Z,0.00
2019-03-31T01:56:51.979Z,0.00
2019-03-31T01:57:51.965Z,0.00
2019-03-31T01:58:51.944Z,0.00
2019-03-31T01:59:51.941Z,0.00
2019-03-31T02:00:51.923Z,0.00
2019-03-31T02:02:03.526Z,0.00
2019-03-31T02:02:51.925Z,0.00
2019-03-31T02:03:51.925Z,0.00
2019-03-31T02:04:51.892Z,0.00
2019-03-31T02:05:51.865Z,0.00
2019-03-31T02:06:51.859Z,0.00
2019-03-31T02:07:51.871Z,0.00
2019-03-31T02:08:51.847Z,0.00
2019-03-31T02:09:51.830Z,0.00
2019-03-31T02:10:51.812Z,0.00
2019-03-31T02:11:51.804Z,0.00
2019-03-31T02:12:51.812Z,0.00
2019-03-31T02:13:51.784Z,0.00
2019-03-31T02:14:51.775Z,0.00
2019-03-31T02:15:51.763Z,0.00
2019-03-31T02:16:51.754Z,0.00
2019-03-31T02:17:51.784Z,0.00
2019-03-31T02:18:51.737Z,0.00
2019-03-31T02:19:51.726Z,0.00
2019-03-31T02:20:51.707Z,0.00
2019-03-31T02:21:51.709Z,0.00
2019-03-31T02:22:51.701Z,0.00
2019-03-31T02:23:51.674Z,0.00
2019-03-31T02:24:51.671Z,0.00
2019-03-31T02:25:51.675Z,0.00
2019-03-31T02:26:51.649Z,0.00
2019-03-31T02:27:51.657Z,0.00
2019-03-31T02:28:51.617Z,0.00
2019-03-31T02:29:51.619Z,0.00
2019-03-31T02:30:51.603Z,0.00
2019-03-31T02:31:51.594Z,0.00
2019-03-31T02:32:51.592Z,0.00
2019-03-31T02:33:51.597Z,0.00
2019-03-31T02:34:51.563Z,0.00
2019-03-31T02:35:51.555Z,0.00
2019-03-31T02:36:51.531Z,0.00
2019-03-31T02:37:51.524Z,0.00
2019-03-31T02:38:51.535Z,0.00
2019-03-31T02:39:51.506Z,0.00
2019-03-31T02:40:51.516Z,0.00
2019-03-31T02:41:51.482Z,0.00
2019-03-31T02:42:51.477Z,0.00
2019-03-31T02:43:51.489Z,0.00
2019-03-31T02:44:51.460Z,0.00
2019-03-31T02:45:51.452Z,0.00
2019-03-31T02:46:51.446Z,0.00
2019-03-31T02:47:51.430Z,0.00
2019-03-31T02:48:51.423Z,0.00
2019-03-31T02:49:51.404Z,0.00
2019-03-31T02:50:51.379Z,0.00
2019-03-31T02:51:51.378Z,0.00
2019-03-31T02:52:51.407Z,0.00
2019-03-31T02:53:51.373Z,0.00
2019-03-31T02:54:51.355Z,0.00
2019-03-31T02:55:51.328Z,0.00
2019-03-31T02:56:51.326Z,0.00
2019-03-31T02:57:51.345Z,0.00
2019-03-31T02:58:51.333Z,0.00
2019-03-31T02:59:51.296Z,0.00
2019-03-31T03:00:51.313Z,0.00
2019-03-31T03:01:51.274Z,0.00
2019-03-31T03:02:51.257Z,0.00
2019-03-31T03:03:51.252Z,0.00
2019-03-31T03:05:59.971Z,0.00
2019-03-31T03:07:00.915Z,0.00
2019-03-31T03:08:01.792Z,0.00
2019-03-31T03:09:00.914Z,0.00
2019-03-31T03:10:00.876Z,0.00
2019-03-31T03:11:00.867Z,0.00
2019-03-31T03:12:00.869Z,0.00
2019-03-31T03:13:00.843Z,0.00
2019-03-31T03:14:00.861Z,0.00
2019-03-31T03:15:00.830Z,0.00
2019-03-31T03:16:00.822Z,0.00
2019-03-31T03:17:00.816Z,0.00
2019-03-31T03:18:00.791Z,0.00
2019-03-31T03:19:00.795Z,0.00
2019-03-31T03:20:00.783Z,0.00
2019-03-31T03:21:00.753Z,0.00
2019-03-31T03:22:00.754Z,0.00
2019-03-31T03:23:00.746Z,0.00
2019-03-31T03:24:00.754Z,0.00
2019-03-31T03:25:00.720Z,0.00
2019-03-31T03:26:00.702Z,0.00
2019-03-31T03:27:00.703Z,0.00
2019-03-31T03:28:00.694Z,0.00
2019-03-31T03:29:00.709Z,0.00
2019-03-31T03:30:00.790Z,0.00
2019-03-31T03:31:01.061Z,0.00
2019-03-31T03:32:00.645Z,0.00
2019-03-31T03:33:14.523Z,0.00
2019-03-31T03:34:00.636Z,0.00
2019-03-31T03:35:01.129Z,0.00
2019-03-31T03:36:00.607Z,0.00
2019-03-31T03:37:00.601Z,0.00
2019-03-31T03:38:00.582Z,0.00
2019-03-31T03:39:00.609Z,0.00
2019-03-31T03:40:00.565Z,0.00
2019-03-31T03:41:00.538Z,0.00
2019-03-31T03:42:00.535Z,0.00
2019-03-31T03:43:00.530Z,0.00
2019-03-31T03:44:02.538Z,0.00
2019-03-31T03:45:00.514Z,0.00
2019-03-31T03:46:00.481Z,0.00
2019-03-31T03:47:00.478Z,0.00
2019-03-31T03:48:00.469Z,0.00
2019-03-31T03:49:00.527Z,0.00
2019-03-31T03:50:00.693Z,0.00
2019-03-31T03:51:00.437Z,0.00
2019-03-31T03:52:00.427Z,0.00
2019-03-31T03:53:00.426Z,0.00
2019-03-31T03:54:00.430Z,0.00
2019-03-31T03:55:00.536Z,0.00
2019-03-31T03:56:00.379Z,0.00
2019-03-31T03:57:00.366Z,0.00
2019-03-31T03:58:00.352Z,0.00
2019-03-31T03:59:00.381Z,0.00
2019-03-31T04:00:00.731Z,0.00
2019-03-31T04:01:00.325Z,0.00
2019-03-31T04:02:00.311Z,0.00
2019-03-31T04:03:00.296Z,0.00
2019-03-31T04:04:00.284Z,0.00
2019-03-31T04:05:00.592Z,0.00
2019-03-31T04:06:00.276Z,0.00
2019-03-31T04:07:00.253Z,0.00
2019-03-31T04:08:00.255Z,0.00
2019-03-31T04:09:00.246Z,0.00
2019-03-31T04:10:00.438Z,0.00
2019-03-31T04:11:00.211Z,0.00
2019-03-31T04:12:00.216Z,0.00
2019-03-31T04:13:00.195Z,0.00
2019-03-31T04:14:00.193Z,0.00
2019-03-31T04:15:00.571Z,0.00
2019-03-31T04:16:00.164Z,0.00
2019-03-31T04:17:00.151Z,0.00
2019-03-31T04:18:00.138Z,0.00
2019-03-31T04:19:00.128Z,0.00
2019-03-31T04:20:00.439Z,0.00
2019-03-31T04:21:00.128Z,0.00
2019-03-31T04:22:00.101Z,0.00
2019-03-31T04:23:00.086Z,0.00
2019-03-31T04:24:00.087Z,0.00
2019-03-31T04:25:00.649Z,0.00
2019-03-31T04:26:00.054Z,0.00
2019-03-31T04:27:00.031Z,0.00
2019-03-31T04:28:00.022Z,0.00
2019-03-31T04:29:00.022Z,0.00
2019-03-31T04:30:00.031Z,0.00
2019-03-31T04:30:59.990Z,0.00
2019-03-31T04:31:59.980Z,0.00
2019-03-31T04:32:59.979Z,0.00
2019-03-31T04:33:59.972Z,0.00
2019-03-31T04:34:59.986Z,0.00
2019-03-31T04:35:59.934Z,0.00
2019-03-31T04:37:00.676Z,4.00
2019-03-31T04:37:59.920Z,0.00
2019-03-31T04:39:00.699Z,4.00
2019-03-31T04:39:59.947Z,4.00
2019-03-31T04:40:59.879Z,4.00
2019-03-31T04:41:59.864Z,4.00
2019-03-31T04:42:59.867Z,4.00
2019-03-31T04:43:59.856Z,4.00
2019-03-31T04:44:59.849Z,4.00
2019-03-31T04:45:59.848Z,8.00
2019-03-31T04:46:59.822Z,8.00
2019-03-31T04:47:59.820Z,8.00
2019-03-31T04:48:59.806Z,12.00
2019-03-31T04:49:59.781Z,12.00
2019-03-31T04:50:59.773Z,16.00
2019-03-31T04:51:59.770Z,20.00
2019-03-31T04:52:59.789Z,20.00
2019-03-31T04:53:59.751Z,28.00
2019-03-31T04:54:59.732Z,32.00
2019-03-31T04:55:59.721Z,40.00
2019-03-31T04:56:59.714Z,44.00
2019-03-31T04:57:59.713Z,52.00
2019-03-31T04:58:59.686Z,56.00
2019-03-31T04:59:59.681Z,64.00
2019-03-31T05:00:59.680Z,72.00
2019-03-31T05:01:59.669Z,80.00
2019-03-31T05:02:59.704Z,92.00
2019-03-31T05:04:04.905Z,100.00
2019-03-31T05:04:59.622Z,112.00
2019-03-31T05:07:08.810Z,140.00
2019-03-31T05:08:09.817Z,152.00
2019-03-31T05:09:09.782Z,164.00
2019-03-31T05:10:09.792Z,176.00
2019-03-31T05:11:09.777Z,192.00
2019-03-31T05:12:09.754Z,208.00
2019-03-31T05:13:09.754Z,220.00
2019-03-31T05:14:09.738Z,232.00
2019-03-31T05:15:09.725Z,240.00
2019-03-31T05:16:09.736Z,248.00
2019-03-31T05:17:09.700Z,260.00
2019-03-31T05:18:09.734Z,272.00
2019-03-31T05:19:09.689Z,280.00
2019-03-31T05:20:09.676Z,288.00
2019-03-31T05:21:09.683Z,300.00
2019-03-31T05:22:09.660Z,312.00
2019-03-31T05:23:09.649Z,316.00
2019-03-31T05:24:09.640Z,316.00
2019-03-31T05:25:09.614Z,312.00
2019-03-31T05:26:09.615Z,308.00
2019-03-31T05:27:09.591Z,300.00
2019-03-31T05:28:09.594Z,304.00
2019-03-31T05:29:09.592Z,300.00
2019-03-31T05:30:09.554Z,296.00
2019-03-31T05:31:09.550Z,292.00
2019-03-31T05:32:09.571Z,296.00
2019-03-31T05:33:09.522Z,296.00
2019-03-31T05:34:18.946Z,300.00
2019-03-31T05:35:09.506Z,312.00
2019-03-31T05:36:09.503Z,316.00
2019-03-31T05:37:09.486Z,332.00
2019-03-31T05:38:10.045Z,336.00
2019-03-31T05:39:09.478Z,320.00
2019-03-31T05:40:09.450Z,316.00
2019-03-31T05:41:09.433Z,320.00
2019-03-31T05:42:09.425Z,340.00
2019-03-31T05:43:09.425Z,356.00
2019-03-31T05:44:09.431Z,388.00
2019-03-31T05:45:09.404Z,416.00
2019-03-31T05:46:09.388Z,416.00
2019-03-31T05:47:09.377Z,412.00
2019-03-31T05:48:09.376Z,368.00
2019-03-31T05:49:09.376Z,332.00
2019-03-31T05:50:09.339Z,324.00
2019-03-31T05:51:09.330Z,324.00
2019-03-31T05:52:09.325Z,312.00
2019-03-31T05:53:09.325Z,328.00
2019-03-31T05:54:09.320Z,344.00
2019-03-31T05:55:09.289Z,384.00
2019-03-31T05:56:09.273Z,432.00
2019-03-31T05:57:09.268Z,480.00
2019-03-31T05:58:09.272Z,512.00
2019-03-31T05:59:09.263Z,544.00
2019-03-31T06:00:09.238Z,556.00
2019-03-31T06:01:10.059Z,580.00
2019-03-31T06:02:09.210Z,608.00
2019-03-31T06:03:09.208Z,608.00
2019-03-31T06:04:09.216Z,644.00
2019-03-31T06:05:09.187Z,644.00
2019-03-31T06:06:09.176Z,640.00
2019-03-31T06:07:09.165Z,680.00
2019-03-31T06:08:09.150Z,724.00
2019-03-31T06:09:09.161Z,768.00
2019-03-31T06:10:09.127Z,796.00
2019-03-31T06:11:09.123Z,776.00
2019-03-31T06:12:09.108Z,784.00
2019-03-31T06:13:09.100Z,768.00
2019-03-31T06:14:09.094Z,708.00
2019-03-31T06:15:09.083Z,644.00
2019-03-31T06:16:09.057Z,584.00
2019-03-31T06:17:09.051Z,588.00
2019-03-31T06:18:09.041Z,652.00
2019-03-31T06:19:09.049Z,696.00
2019-03-31T06:20:09.020Z,692.00
2019-03-31T06:21:09.011Z,792.00
2019-03-31T06:22:09.005Z,852.00
2019-03-31T06:23:09.011Z,888.00
2019-03-31T06:24:08.999Z,928.00
2019-03-31T06:25:08.971Z,984.00
2019-03-31T06:26:08.985Z,1020.00
2019-03-31T06:27:08.940Z,988.00
2019-03-31T06:28:08.958Z,948.00
2019-03-31T06:29:08.944Z,948.00
2019-03-31T06:30:08.902Z,920.00
2019-03-31T06:31:08.904Z,960.00
2019-03-31T06:32:08.893Z,964.00
2019-03-31T06:33:08.881Z,972.00
2019-03-31T06:34:08.893Z,1028.00
2019-03-31T06:35:08.855Z,1068.00
2019-03-31T06:36:08.859Z,1100.00
2019-03-31T06:37:08.859Z,1172.00
2019-03-31T06:38:08.827Z,1280.00
2019-03-31T06:39:08.821Z,1320.00
2019-03-31T06:40:08.797Z,1364.00
2019-03-31T06:41:08.796Z,1432.00
2019-03-31T06:42:08.776Z,1464.00
2019-03-31T06:43:08.784Z,1504.00
2019-03-31T06:44:08.769Z,1520.00
2019-03-31T06:45:08.752Z,1520.00
2019-03-31T06:46:08.727Z,1580.00
2019-03-31T06:47:08.726Z,1660.00
2019-03-31T06:48:08.706Z,1624.00
2019-03-31T06:49:08.806Z,1572.00
2019-03-31T06:50:08.700Z,1620.00
2019-03-31T06:51:08.678Z,1756.00
2019-03-31T06:52:08.667Z,1928.00
2019-03-31T06:53:08.657Z,2136.00
2019-03-31T06:54:08.662Z,2192.00
2019-03-31T06:55:08.645Z,2244.00
2019-03-31T06:56:08.634Z,2348.00
2019-03-31T06:57:08.619Z,2436.00
2019-03-31T06:58:08.604Z,2400.00
2019-03-31T06:59:08.650Z,2412.00
2019-03-31T07:00:08.591Z,2456.00
2019-03-31T07:01:08.571Z,2484.00
2019-03-31T07:02:08.568Z,2536.00
2019-03-31T07:03:08.550Z,2636.00
2019-03-31T07:04:08.561Z,3024.00
2019-03-31T07:05:08.550Z,3296.00
2019-03-31T07:06:08.538Z,3588.00
2019-03-31T07:08:17.710Z,4212.00
2019-03-31T07:09:18.723Z,4468.00
2019-03-31T07:10:18.691Z,4656.00
2019-03-31T07:11:18.675Z,4896.00
2019-03-31T07:12:18.659Z,5024.00
2019-03-31T07:13:18.664Z,5204.00
2019-03-31T07:14:18.745Z,5472.00
2019-03-31T07:15:18.628Z,5852.00
2019-03-31T07:16:18.645Z,6096.00
2019-03-31T07:17:18.605Z,6192.00
2019-03-31T07:18:18.603Z,6636.00
2019-03-31T07:19:18.609Z,7564.00
2019-03-31T07:20:18.601Z,7388.00
2019-03-31T07:21:18.561Z,7560.00
2019-03-31T07:22:18.564Z,7792.00
2019-03-31T07:23:18.547Z,8192.00
2019-03-31T07:24:18.538Z,8760.00
2019-03-31T07:25:18.539Z,9480.00
2019-03-31T07:26:18.516Z,11348.00
2019-03-31T07:27:18.510Z,11828.00
2019-03-31T07:28:18.499Z,14336.00
2019-03-31T07:29:18.483Z,16704.00
2019-03-31T07:30:18.483Z,12312.00
2019-03-31T07:31:18.465Z,13760.00
2019-03-31T07:32:18.460Z,12100.00
2019-03-31T07:33:18.439Z,11332.00
2019-03-31T07:34:18.434Z,10824.00
2019-03-31T07:35:19.101Z,10668.00
2019-03-31T07:36:18.402Z,11392.00
2019-03-31T07:37:18.400Z,12868.00
2019-03-31T07:38:18.643Z,14620.00
2019-03-31T07:39:18.430Z,13820.00
2019-03-31T07:40:18.567Z,12996.00
2019-03-31T07:41:18.495Z,15052.00
2019-03-31T07:42:18.349Z,15024.00
2019-03-31T07:43:18.448Z,14476.00
2019-03-31T07:44:18.324Z,15620.00
2019-03-31T07:45:18.335Z,14328.00
2019-03-31T07:46:18.337Z,12688.00
2019-03-31T07:47:18.293Z,12424.00
2019-03-31T07:48:18.274Z,11880.00
2019-03-31T07:49:18.265Z,10804.00
2019-03-31T07:50:18.261Z,10240.00
2019-03-31T07:51:18.251Z,9000.00
2019-03-31T07:52:18.227Z,7784.00
2019-03-31T07:53:18.228Z,6796.00
2019-03-31T07:54:18.246Z,5868.00
2019-03-31T07:55:18.217Z,5336.00
2019-03-31T07:56:18.195Z,5056.00
2019-03-31T07:57:18.165Z,4808.00
2019-03-31T07:58:18.201Z,4748.00
2019-03-31T07:59:18.248Z,4788.00
2019-03-31T08:00:18.169Z,5188.00
2019-03-31T08:01:18.131Z,5160.00
2019-03-31T08:02:18.119Z,4740.00
2019-03-31T08:03:18.104Z,4376.00
2019-03-31T08:04:18.093Z,4132.00
2019-03-31T08:05:32.036Z,4060.00
2019-03-31T08:06:18.076Z,4228.00
2019-03-31T08:07:18.052Z,4392.00
2019-03-31T08:08:18.051Z,4560.00
2019-03-31T08:09:18.038Z,4628.00
2019-03-31T08:10:18.034Z,4668.00
2019-03-31T08:11:18.015Z,4668.00
2019-03-31T08:12:18.008Z,4596.00
2019-03-31T08:13:17.995Z,4668.00
2019-03-31T08:14:17.977Z,4836.00
2019-03-31T08:15:17.985Z,5108.00
2019-03-31T08:16:17.960Z,6156.00
2019-03-31T08:17:18.043Z,13972.00
2019-03-31T08:18:17.943Z,13440.00
2019-03-31T08:19:20.707Z,12804.00
2019-03-31T08:20:17.930Z,13424.00
2019-03-31T08:21:17.904Z,25056.00
2019-03-31T08:22:17.886Z,22496.00
2019-03-31T08:23:17.898Z,27840.00
2019-03-31T08:24:17.877Z,27520.00
2019-03-31T08:25:17.875Z,26528.00
2019-03-31T08:26:17.853Z,27072.00
2019-03-31T08:27:17.853Z,26656.00
2019-03-31T08:28:17.835Z,25568.00
2019-03-31T08:29:17.819Z,24160.00
2019-03-31T08:30:17.824Z,24320.00
2019-03-31T08:31:17.797Z,24960.00
2019-03-31T08:32:17.795Z,25088.00
2019-03-31T08:33:17.779Z,24576.00
2019-03-31T08:34:17.765Z,23712.00
2019-03-31T08:35:17.771Z,20832.00
2019-03-31T08:36:17.739Z,23456.00
2019-03-31T08:37:17.731Z,19968.00
2019-03-31T08:38:17.707Z,19680.00
2019-03-31T08:39:17.722Z,16832.00
2019-03-31T08:40:17.710Z,14660.00
2019-03-31T08:41:17.678Z,14160.00
2019-03-31T08:42:17.691Z,13644.00
2019-03-31T08:43:17.676Z,11740.00
2019-03-31T08:44:17.656Z,10728.00
2019-03-31T08:45:17.703Z,9460.00
2019-03-31T08:46:17.641Z,8744.00
2019-03-31T08:47:17.622Z,7956.00
2019-03-31T08:48:17.602Z,7284.00
2019-03-31T08:49:17.593Z,6640.00
2019-03-31T08:50:17.605Z,6184.00
2019-03-31T08:51:17.605Z,5800.00
2019-03-31T08:52:17.568Z,5592.00
2019-03-31T08:53:17.562Z,5580.00
2019-03-31T08:54:17.553Z,5588.00
2019-03-31T08:55:17.536Z,5636.00
2019-03-31T08:56:17.532Z,5864.00
2019-03-31T08:57:17.514Z,6292.00
2019-03-31T08:58:17.488Z,6348.00
2019-03-31T08:59:17.492Z,6288.00
2019-03-31T09:00:17.474Z,6244.00
2019-03-31T09:01:17.491Z,6220.00
2019-03-31T09:02:17.453Z,6252.00
2019-03-31T09:03:17.442Z,6372.00
2019-03-31T09:04:17.436Z,6436.00
2019-03-31T09:05:17.416Z,6464.00
2019-03-31T09:06:17.436Z,6448.00
2019-03-31T09:07:17.405Z,6564.00
2019-03-31T09:09:27.314Z,7764.00
2019-03-31T09:10:28.288Z,8740.00
2019-03-31T09:11:28.303Z,8752.00
2019-03-31T09:12:28.282Z,8328.00
2019-03-31T09:13:28.266Z,8164.00
2019-03-31T09:14:28.253Z,8284.00
2019-03-31T09:15:28.236Z,8888.00
2019-03-31T09:16:28.380Z,9256.00
2019-03-31T09:17:28.216Z,9664.00
2019-03-31T09:18:28.213Z,9664.00
2019-03-31T09:19:28.211Z,9488.00
2019-03-31T09:20:28.188Z,9168.00
2019-03-31T09:21:28.197Z,8548.00
2019-03-31T09:22:28.198Z,7988.00
2019-03-31T09:23:28.153Z,7668.00
2019-03-31T09:24:28.155Z,7472.00
2019-03-31T09:25:28.140Z,7328.00
2019-03-31T09:26:28.212Z,7600.00
2019-03-31T09:27:28.129Z,7344.00
2019-03-31T09:28:28.103Z,6964.00
2019-03-31T09:29:28.095Z,6936.00
2019-03-31T09:30:28.077Z,6972.00
2019-03-31T09:31:28.089Z,7224.00
2019-03-31T09:32:28.061Z,7328.00
2019-03-31T09:33:28.034Z,6952.00
2019-03-31T09:34:28.027Z,6708.00
2019-03-31T09:35:28.042Z,6636.00
2019-03-31T09:36:28.031Z,6588.00
2019-03-31T09:37:28.002Z,6492.00
2019-03-31T09:38:27.984Z,6012.00
2019-03-31T09:39:27.980Z,5588.00
2019-03-31T09:40:27.973Z,5344.00
2019-03-31T09:41:27.978Z,5292.00
2019-03-31T09:42:27.951Z,5280.00
2019-03-31T09:43:27.953Z,5404.00
2019-03-31T09:44:30.293Z,5504.00
2019-03-31T09:45:27.931Z,5700.00
2019-03-31T09:46:27.923Z,6024.00
2019-03-31T09:47:27.887Z,6572.00
2019-03-31T09:48:27.886Z,7380.00
2019-03-31T09:49:27.872Z,7868.00
2019-03-31T09:50:27.859Z,8440.00
2019-03-31T09:51:27.866Z,9728.00
2019-03-31T09:52:27.968Z,12116.00
2019-03-31T09:53:27.828Z,14028.00
2019-03-31T09:54:27.805Z,20096.00
2019-03-31T09:55:27.799Z,18272.00
2019-03-31T09:56:27.808Z,17568.00
2019-03-31T09:57:27.783Z,17568.00
2019-03-31T09:58:27.766Z,17472.00
2019-03-31T09:59:27.746Z,14868.00
2019-03-31T10:00:27.765Z,12872.00
2019-03-31T10:01:27.737Z,11512.00
2019-03-31T10:02:27.734Z,10936.00
2019-03-31T10:03:27.722Z,9652.00
2019-03-31T10:04:27.708Z,8476.00
2019-03-31T10:05:27.691Z,7596.00
2019-03-31T10:06:30.486Z,7036.00
2019-03-31T10:07:27.688Z,6660.00
2019-03-31T10:08:27.664Z,6452.00
2019-03-31T10:09:27.639Z,6268.00
2019-03-31T10:10:27.632Z,6116.00
2019-03-31T10:11:27.635Z,6052.00
2019-03-31T10:12:27.635Z,6116.00
2019-03-31T10:13:27.604Z,6364.00
2019-03-31T10:14:27.592Z,6664.00
2019-03-31T10:15:27.607Z,7048.00
2019-03-31T10:16:27.574Z,7480.00
2019-03-31T10:17:27.576Z,8060.00
2019-03-31T10:18:27.545Z,8668.00
2019-03-31T10:19:27.530Z,9348.00
2019-03-31T10:20:31.126Z,9968.00
2019-03-31T10:21:27.509Z,10108.00
2019-03-31T10:22:27.508Z,9924.00
2019-03-31T10:23:27.505Z,9748.00
2019-03-31T10:24:27.468Z,9876.00
2019-03-31T10:25:27.465Z,10068.00
2019-03-31T10:26:32.089Z,10388.00
2019-03-31T10:27:27.488Z,10664.00
2019-03-31T10:28:27.435Z,10788.00
2019-03-31T10:29:27.419Z,11248.00
2019-03-31T10:30:27.426Z,11748.00
2019-03-31T10:31:27.389Z,12176.00
2019-03-31T10:32:27.417Z,11796.00
2019-03-31T10:33:27.368Z,11132.00
2019-03-31T10:34:27.368Z,10696.00
2019-03-31T10:35:27.355Z,10192.00
2019-03-31T10:36:27.339Z,9560.00
2019-03-31T10:37:27.372Z,8976.00
2019-03-31T10:38:27.316Z,8460.00
2019-03-31T10:39:27.329Z,8192.00
2019-03-31T10:40:27.298Z,8076.00
2019-03-31T10:41:30.700Z,8068.00
2019-03-31T10:42:27.282Z,8220.00
2019-03-31T10:43:27.312Z,8400.00
2019-03-31T10:44:27.245Z,8592.00
2019-03-31T10:45:27.236Z,8904.00
2019-03-31T10:46:27.241Z,9220.00
2019-03-31T10:47:27.241Z,9252.00
2019-03-31T10:48:27.207Z,9056.00
2019-03-31T10:49:27.206Z,8804.00
2019-03-31T10:50:27.182Z,8756.00
2019-03-31T10:51:27.169Z,8744.00
2019-03-31T10:52:27.212Z,8468.00
2019-03-31T10:53:27.156Z,8084.00
2019-03-31T10:54:27.144Z,7744.00
2019-03-31T10:55:27.137Z,7464.00
2019-03-31T10:56:27.125Z,7108.00
2019-03-31T10:57:27.137Z,6712.00
2019-03-31T10:58:27.106Z,6312.00
2019-03-31T10:59:27.079Z,5960.00
2019-03-31T11:00:27.081Z,5760.00
2019-03-31T11:01:27.055Z,5724.00
2019-03-31T11:02:27.076Z,5808.00
2019-03-31T11:03:27.051Z,5928.00
2019-03-31T11:04:27.025Z,6064.00
2019-03-31T11:05:27.070Z,6252.00
2019-03-31T11:06:27.015Z,6528.00
2019-03-31T11:07:27.026Z,6916.00
2019-03-31T11:08:26.986Z,7352.00
2019-03-31T11:10:36.167Z,7904.00
2019-03-31T11:11:37.157Z,8024.00
2019-03-31T11:12:37.166Z,8004.00
2019-03-31T11:13:37.127Z,7924.00
2019-03-31T11:14:37.114Z,7944.00
2019-03-31T11:15:37.099Z,8216.00
2019-03-31T11:16:37.903Z,8420.00
2019-03-31T11:17:37.107Z,8564.00
2019-03-31T11:18:37.073Z,8768.00
2019-03-31T11:19:37.060Z,8872.00
2019-03-31T11:20:37.057Z,8864.00
2019-03-31T11:21:40.267Z,8704.00
2019-03-31T11:22:37.053Z,8548.00
2019-03-31T11:23:37.011Z,8664.00
2019-03-31T11:24:37.006Z,8732.00
2019-03-31T11:25:37.005Z,8588.00
2019-03-31T11:26:37.002Z,8164.00
2019-03-31T11:27:37.002Z,7612.00
2019-03-31T11:28:36.960Z,7144.00
2019-03-31T11:29:36.949Z,6832.00
2019-03-31T11:30:36.935Z,6768.00
2019-03-31T11:31:36.935Z,6864.00
2019-03-31T11:32:36.941Z,7080.00
2019-03-31T11:33:36.922Z,7364.00
2019-03-31T11:34:36.891Z,7624.00
2019-03-31T11:35:36.895Z,7892.00
2019-03-31T11:36:36.875Z,8272.00
2019-03-31T11:37:36.885Z,8604.00
2019-03-31T11:38:36.857Z,8688.00
2019-03-31T11:39:36.840Z,8840.00
2019-03-31T11:40:36.832Z,8816.00
2019-03-31T11:41:36.823Z,8668.00
2019-03-31T11:42:36.837Z,8748.00
2019-03-31T11:43:36.810Z,8764.00
2019-03-31T11:44:36.785Z,8628.00
2019-03-31T11:45:36.795Z,8428.00
2019-03-31T11:46:36.750Z,8180.00
2019-03-31T11:47:36.765Z,7832.00
2019-03-31T11:48:36.748Z,7508.00
2019-03-31T11:49:36.729Z,7288.00
2019-03-31T11:50:36.715Z,7140.00
2019-03-31T11:51:36.939Z,7060.00
2019-03-31T11:52:36.697Z,7028.00
2019-03-31T11:53:36.683Z,7020.00
2019-03-31T11:54:36.664Z,6972.00
2019-03-31T11:55:36.650Z,6908.00
2019-03-31T11:56:36.679Z,6872.00
2019-03-31T11:57:36.638Z,6856.00
2019-03-31T11:58:36.631Z,6852.00
2019-03-31T11:59:36.634Z,6824.00
2019-03-31T12:00:36.603Z,6804.00
2019-03-31T12:01:36.613Z,6724.00
2019-03-31T12:02:36.586Z,6648.00
2019-03-31T12:03:36.569Z,6592.00
2019-03-31T12:04:36.566Z,6560.00
2019-03-31T12:05:36.560Z,6624.00
2019-03-31T12:06:36.532Z,6816.00
2019-03-31T12:07:46.477Z,7044.00
2019-03-31T12:08:36.520Z,7296.00
2019-03-31T12:09:36.498Z,7540.00
2019-03-31T12:10:36.482Z,7680.00
2019-03-31T12:11:36.476Z,7780.00
2019-03-31T12:12:36.490Z,7972.00
2019-03-31T12:13:36.461Z,8232.00
2019-03-31T12:14:36.455Z,8636.00
2019-03-31T12:15:36.435Z,8980.00
2019-03-31T12:16:36.436Z,9304.00
2019-03-31T12:17:36.422Z,9552.00
2019-03-31T12:18:36.406Z,9644.00
2019-03-31T12:19:36.382Z,9840.00
2019-03-31T12:20:36.374Z,9556.00
2019-03-31T12:21:36.367Z,9476.00
2019-03-31T12:22:36.381Z,9488.00
2019-03-31T12:23:36.339Z,9640.00
2019-03-31T12:24:36.348Z,10016.00
2019-03-31T12:25:36.331Z,10836.00
2019-03-31T12:26:36.301Z,11716.00
2019-03-31T12:27:36.331Z,12680.00
2019-03-31T12:28:36.287Z,13992.00
2019-03-31T12:29:36.278Z,15788.00
2019-03-31T12:30:36.269Z,18624.00
2019-03-31T12:31:36.255Z,19424.00
2019-03-31T12:32:38.388Z,20512.00
2019-03-31T12:33:36.228Z,20640.00
2019-03-31T12:34:36.228Z,20352.00
2019-03-31T12:35:36.202Z,19104.00
2019-03-31T12:36:36.197Z,17760.00
2019-03-31T12:37:42.544Z,16364.00
2019-03-31T12:38:36.188Z,15184.00
2019-03-31T12:39:36.172Z,14540.00